Terminal Aerodrome Forecast
Issued by NWS Charleston, WV

Current Version | Previous Version | Graphics & Text | Print | Product List | Glossary On
Versions: 1 2 3 4 5 6 7 8 9 10 11 12 13 14 15 16 17 18 19 20 21 22
457
FTUS41 KRLX 101418 AAA
TAFHTS
TAF AMD
KHTS 101418Z 1014/1112 26009KT 5SM -SHSN OVC025
      TEMPO 1014/1018 2SM -SHSN OVC015
     FM102200 26009KT P6SM OVC035
     FM110200 26009KT P6SM BKN025
     FM110800 28009KT P6SM BKN035=

USA.gov is the U.S. government's official web portal to all federal, state and local government web resources and services.